Flight Track Log - Related Links

Times and Time Zones

All times are in EDT time to prevent confusion due to time zone crossing. See the SWA1521 flight status page for this flight to view local times or setup timezone preferences in your user account.

Time Position Orientation Groundspeed Altitude Reporting Facility
EDT Latitude Longitude Course Direction KTS MPH feet Rate Location/Type
Mon 06:32:35 PM 33.6489 -117.8867 189° South 134 154 1,700  Level Los Angeles Center
Mon 06:33:38 PM 33.6064 -117.8947 189° South 149 171 3,200 1,872 Climbing Los Angeles Center
Mon 06:34:40 PM 33.5461 -117.9156 196° South 210 242 5,600 1,839 Climbing Los Angeles Center
Mon 06:35:42 PM 33.4808 -117.9697 215° Southwest 258 297 7,000 1,887 Climbing Los Angeles Center
Mon 06:36:44 PM 33.4153 -118.0256 215° Southwest 283 326 9,500 3,194 Climbing Los Angeles Center
Mon 06:37:46 PM 33.3394 -118.1069 222° Southwest 327 376 13,600 3,774 Climbing Los Angeles Center
Mon 06:38:48 PM 33.3658 -118.2100 287° West 339 390 17,300 3,387 Climbing Los Angeles Center
Mon 06:39:50 PM 33.4325 -118.2989 312° West 353 406 20,600 3,072 Climbing Los Angeles Center
Mon 06:40:53 PM 33.5017 -118.3936 311° West 368 423 23,700 2,688 Climbing Los Angeles Center
Mon 06:41:55 PM 33.5750 -118.4914 312° West 385 443 26,200 2,323 Climbing Los Angeles Center
Mon 06:42:57 PM 33.6514 -118.5953 311° West 405 466 28,500 2,129 Climbing Los Angeles Center
Mon 06:43:59 PM 33.7294 -118.6997 312° West 411 473 30,600 2,032 Climbing Los Angeles Center
Mon 06:45:01 PM 33.8239 -118.8289 311° West 422 486 32,700 2,081 Climbing Los Angeles Center
Mon 06:46:03 PM 33.9044 -118.9378 312° West 431 496 34,900 2,081 Climbing Los Angeles Center
Mon 06:47:05 PM 33.9831 -119.0450 311° West 431 496 37,000 1,632 Climbing Los Angeles Center
Mon 06:48:08 PM 34.0586 -119.1494 311° West 420 483 38,300 1,152 Climbing Los Angeles Center
Mon 06:49:10 PM 34.1364 -119.2567 311° West 421 484 39,400 823 Climbing Los Angeles Center
Mon 06:50:12 PM 34.2133 -119.3625 311° West 422 486 40,000 290 Climbing Los Angeles Center
Mon 06:51:14 PM 34.3064 -119.4908 311° West 422 486 40,000  Level Los Angeles Center
Mon 06:52:16 PM 34.3828 -119.5978 311° West 422 486 40,000  Level Los Angeles Center
Mon 06:53:18 PM 34.4600 -119.7061 311° West 422 486 40,000  Level Los Angeles Center
Mon 06:54:21 PM 34.5472 -119.8036 317° Northwest 434 499 40,000  Level Los Angeles Center
Mon 06:55:23 PM 34.6481 -119.8839 327° Northwest 446 513 40,000  Level Los Angeles Center
Mon 06:56:25 PM 34.7667 -119.9828 326° Northwest 436 502 40,000  Level Los Angeles Center
Mon 06:57:27 PM 34.8664 -120.0656 326° Northwest 434 499 40,000  Level Los Angeles Center
Mon 06:58:29 PM 34.9589 -120.1425 326° Northwest 434 499 40,000  Level Los Angeles Center
Mon 06:59:31 PM 35.0583 -120.2253 326° Northwest 434 499 40,000  Level Los Angeles Center
Mon 07:00:33 PM 35.1753 -120.3239 325° Northwest 432 497 40,000  Level Los Angeles Center
Mon 07:01:36 PM 35.2742 -120.4053 326° Northwest 432 497 40,000  Level Los Angeles Center
Mon 07:02:38 PM 35.3694 -120.4903 324° Northwest 429 494 40,000  Level Los Angeles Center
Mon 07:03:40 PM 35.4697 -120.5747 326° Northwest 432 497 40,000  Level Los Angeles Center
Mon 07:04:42 PM 35.5692 -120.6589 325° Northwest 433 498 40,000  Level Los Angeles Center
Mon 07:05:44 PM 35.6864 -120.7578 326° Northwest 433 498 40,000 -791 Level Los Angeles Center
Mon 07:06:51 PM 35.7853 -120.8414 326° Northwest 432 497 38,300 -2,109 Descending Oakland Center
Mon 07:07:52 PM 35.8817 -120.9233 325° Northwest 423 487 35,500 -3,171 Descending Oakland Center
Mon 07:08:54 PM 35.9997 -121.0256 325° Northwest 428 493 31,800 -2,976 Descending Oakland Center
Mon 07:09:55 PM 36.0953 -121.1081 325° Northwest 421 484 29,400 -2,361 Descending Oakland Center
Mon 07:10:56 PM 36.1878 -121.1897 325° Northwest 409 471 27,000 -2,293 Descending Oakland Center
Mon 07:11:58 PM 36.2778 -121.2672 325° Northwest 399 459 24,700 -2,341 Descending Oakland Center
Mon 07:12:59 PM 36.3653 -121.3414 326° Northwest 388 447 22,200 -2,951 Descending Oakland Center
Mon 07:14:00 PM 36.4522 -121.4189 324° Northwest 386 444 18,700 -2,537 Descending Oakland Center
Mon 07:15:02 PM 36.5531 -121.4606 342° North 380 437 17,000 -1,854 Descending Oakland Center
Mon 07:16:03 PM 36.6544 -121.4833 350° North 373 429 14,900 -2,115 Descending Oakland Center
Mon 07:17:04 PM 36.7514 -121.5050 350° North 361 415 12,700 -2,213 Descending Oakland Center
Mon 07:18:05 PM 36.8614 -121.5306 349° North 351 404 10,400 -1,610 Descending Oakland Center
Mon 07:19:07 PM 36.9469 -121.5486 350° North 326 375 9,400 -1,317 Descending Oakland Center
Mon 07:20:08 PM 37.0181 -121.5994 330° Northwest 309 356 7,700 -1,574 Descending Oakland Center
Mon 07:21:09 PM 37.0847 -121.6550 326° Northwest 295 339 6,200 -1,268 Descending Oakland Center
Mon 07:22:11 PM 37.1522 -121.7061 329° Northwest 290 334 5,100 -1,073 Descending Oakland Center
Mon 07:23:12 PM 37.2069 -121.7617 321° Northwest 269 310 4,000 -1,180 Descending Oakland Center
Mon 07:24:13 PM 37.2564 -121.8164 319° Northwest 252 290 2,700 -1,268 Descending Oakland Center
Mon 07:25:15 PM 37.2989 -121.8622 319° Northwest 223 257 1,400 -1,073 Descending Oakland Center
Mon 07:26:16 PM 37.3367 -121.9028 320° Northwest 173 199 500 -885 Descending Oakland Center
Mon 07:30:00 PM 37.3500 -121.9167 North  Level FlightAware Approximate
Mon 07:37:00 PM 37.3627 -121.9291 North  Level Estimated

Login

Don't have an account? Register now (free) for customized features, flight alerts, and more!